sensor_id;sensor_type;location;lat;lon;timestamp;temperature;humidity
47590;DHT22;33316;52.298;9.056;2022-07-29T00:02:13;18.60;53.80
47590;DHT22;33316;52.298;9.056;2022-07-29T00:04:38;18.50;53.70
47590;DHT22;33316;52.298;9.056;2022-07-29T00:07:04;18.60;53.80
47590;DHT22;33316;52.298;9.056;2022-07-29T00:09:31;18.60;53.80
47590;DHT22;33316;52.298;9.056;2022-07-29T00:12:01;18.50;53.80
47590;DHT22;33316;52.298;9.056;2022-07-29T00:14:27;18.50;53.70
47590;DHT22;33316;52.298;9.056;2022-07-29T00:16:56;18.60;53.60
47590;DHT22;33316;52.298;9.056;2022-07-29T00:19:22;18.60;53.60
47590;DHT22;33316;52.298;9.056;2022-07-29T00:21:47;18.50;53.60
47590;DHT22;33316;52.298;9.056;2022-07-29T00:24:13;18.60;53.70
47590;DHT22;33316;52.298;9.056;2022-07-29T00:26:38;18.60;53.50
47590;DHT22;33316;52.298;9.056;2022-07-29T00:29:04;18.60;53.50
47590;DHT22;33316;52.298;9.056;2022-07-29T00:31:30;18.50;53.40
47590;DHT22;33316;52.298;9.056;2022-07-29T00:33:56;18.50;53.30
47590;DHT22;33316;52.298;9.056;2022-07-29T00:36:22;18.50;53.30
47590;DHT22;33316;52.298;9.056;2022-07-29T00:38:49;18.50;53.30
47590;DHT22;33316;52.298;9.056;2022-07-29T00:41:15;18.50;53.30
47590;DHT22;33316;52.298;9.056;2022-07-29T00:43:42;18.50;53.20
47590;DHT22;33316;52.298;9.056;2022-07-29T00:46:11;18.50;53.30
47590;DHT22;33316;52.298;9.056;2022-07-29T00:48:37;18.50;53.10
47590;DHT22;33316;52.298;9.056;2022-07-29T00:51:09;18.50;53.80
47590;DHT22;33316;52.298;9.056;2022-07-29T00:53:36;18.50;53.10
47590;DHT22;33316;52.298;9.056;2022-07-29T00:56:02;18.50;53.00
47590;DHT22;33316;52.298;9.056;2022-07-29T00:58:28;18.50;53.10
47590;DHT22;33316;52.298;9.056;2022-07-29T01:00:57;18.50;53.10
47590;DHT22;33316;52.298;9.056;2022-07-29T01:03:25;18.50;53.10
47590;DHT22;33316;52.298;9.056;2022-07-29T01:05:52;18.50;53.20
47590;DHT22;33316;52.298;9.056;2022-07-29T01:08:21;18.40;53.10
47590;DHT22;33316;52.298;9.056;2022-07-29T01:10:51;18.50;53.10
47590;DHT22;33316;52.298;9.056;2022-07-29T01:13:24;18.50;53.10
47590;DHT22;33316;52.298;9.056;2022-07-29T01:15:56;18.50;53.10
47590;DHT22;33316;52.298;9.056;2022-07-29T01:18:32;18.50;53.10
47590;DHT22;33316;52.298;9.056;2022-07-29T01:28:53;18.40;53.20
47590;DHT22;33316;52.298;9.056;2022-07-29T01:31:45;18.40;53.00
47590;DHT22;33316;52.298;9.056;2022-07-29T01:34:21;18.40;53.80
47590;DHT22;33316;52.298;9.056;2022-07-29T01:36:51;18.40;53.10
47590;DHT22;33316;52.298;9.056;2022-07-29T01:39:37;18.40;53.10
47590;DHT22;33316;52.298;9.056;2022-07-29T01:42:10;18.40;53.20
47590;DHT22;33316;52.298;9.056;2022-07-29T01:44:50;18.40;53.30
47590;DHT22;33316;52.298;9.056;2022-07-29T01:47:20;18.40;53.20
47590;DHT22;33316;52.298;9.056;2022-07-29T01:49:50;18.40;53.20
47590;DHT22;33316;52.298;9.056;2022-07-29T01:52:39;18.40;53.30
47590;DHT22;33316;52.298;9.056;2022-07-29T01:55:14;18.40;53.40
47590;DHT22;33316;52.298;9.056;2022-07-29T01:57:44;18.40;53.40
47590;DHT22;33316;52.298;9.056;2022-07-29T02:00:13;18.40;53.50
47590;DHT22;33316;52.298;9.056;2022-07-29T02:02:44;18.40;53.50
47590;DHT22;33316;52.298;9.056;2022-07-29T02:05:15;18.40;53.60
47590;DHT22;33316;52.298;9.056;2022-07-29T02:07:43;18.40;53.60
47590;DHT22;33316;52.298;9.056;2022-07-29T02:10:13;18.40;53.60
47590;DHT22;33316;52.298;9.056;2022-07-29T02:12:41;18.40;54.30
47590;DHT22;33316;52.298;9.056;2022-07-29T02:15:13;18.40;53.70
47590;DHT22;33316;52.298;9.056;2022-07-29T02:17:52;18.40;53.70
47590;DHT22;33316;52.298;9.056;2022-07-29T02:20:23;18.40;53.70
47590;DHT22;33316;52.298;9.056;2022-07-29T02:22:51;18.40;53.70
47590;DHT22;33316;52.298;9.056;2022-07-29T02:25:18;18.40;53.70
47590;DHT22;33316;52.298;9.056;2022-07-29T02:27:44;18.30;53.60
47590;DHT22;33316;52.298;9.056;2022-07-29T02:30:18;18.40;53.80
47590;DHT22;33316;52.298;9.056;2022-07-29T02:32:44;18.40;53.80
47590;DHT22;33316;52.298;9.056;2022-07-29T02:35:13;18.30;53.60
47590;DHT22;33316;52.298;9.056;2022-07-29T02:37:41;18.30;53.70
47590;DHT22;33316;52.298;9.056;2022-07-29T02:40:12;18.30;53.80
47590;DHT22;33316;52.298;9.056;2022-07-29T02:42:41;18.30;53.80
47590;DHT22;33316;52.298;9.056;2022-07-29T02:45:13;18.30;53.80
47590;DHT22;33316;52.298;9.056;2022-07-29T02:47:49;18.30;53.80
47590;DHT22;33316;52.298;9.056;2022-07-29T02:50:22;18.30;53.80
47590;DHT22;33316;52.298;9.056;2022-07-29T02:53:02;18.30;53.80
47590;DHT22;33316;52.298;9.056;2022-07-29T02:58:06;18.20;54.00
47590;DHT22;33316;52.298;9.056;2022-07-29T03:00:41;18.20;54.00
47590;DHT22;33316;52.298;9.056;2022-07-29T03:03:12;18.20;54.10
47590;DHT22;33316;52.298;9.056;2022-07-29T03:05:39;18.20;54.10
47590;DHT22;33316;52.298;9.056;2022-07-29T03:08:07;18.20;54.10
47590;DHT22;33316;52.298;9.056;2022-07-29T03:10:34;18.20;54.20
47590;DHT22;33316;52.298;9.056;2022-07-29T03:13:02;18.20;54.90
47590;DHT22;33316;52.298;9.056;2022-07-29T03:15:29;18.10;54.20
47590;DHT22;33316;52.298;9.056;2022-07-29T03:17:55;18.10;54.20
47590;DHT22;33316;52.298;9.056;2022-07-29T03:20:27;18.10;54.20
47590;DHT22;33316;52.298;9.056;2022-07-29T03:22:55;18.10;54.30
47590;DHT22;33316;52.298;9.056;2022-07-29T03:25:26;18.10;54.30
47590;DHT22;33316;52.298;9.056;2022-07-29T03:27:54;18.10;54.40
47590;DHT22;33316;52.298;9.056;2022-07-29T03:30:21;18.10;54.40
47590;DHT22;33316;52.298;9.056;2022-07-29T03:32:48;18.10;54.40
47590;DHT22;33316;52.298;9.056;2022-07-29T03:35:13;18.10;54.50
47590;DHT22;33316;52.298;9.056;2022-07-29T03:37:43;18.10;54.50
47590;DHT22;33316;52.298;9.056;2022-07-29T03:40:10;18.10;54.50
47590;DHT22;33316;52.298;9.056;2022-07-29T03:42:39;18.10;54.50
47590;DHT22;33316;52.298;9.056;2022-07-29T03:45:11;18.10;54.50
47590;DHT22;33316;52.298;9.056;2022-07-29T03:47:42;18.10;54.40
47590;DHT22;33316;52.298;9.056;2022-07-29T03:50:12;18.10;54.40
47590;DHT22;33316;52.298;9.056;2022-07-29T03:52:43;18.20;54.40
47590;DHT22;33316;52.298;9.056;2022-07-29T03:55:09;18.20;54.60
47590;DHT22;33316;52.298;9.056;2022-07-29T03:57:36;18.20;54.60
47590;DHT22;33316;52.298;9.056;2022-07-29T04:00:04;18.20;54.70
47590;DHT22;33316;52.298;9.056;2022-07-29T04:02:31;18.20;54.70
47590;DHT22;33316;52.298;9.056;2022-07-29T04:04:57;18.20;54.80
47590;DHT22;33316;52.298;9.056;2022-07-29T04:07:23;18.20;54.90
47590;DHT22;33316;52.298;9.056;2022-07-29T04:09:49;18.10;55.00
47590;DHT22;33316;52.298;9.056;2022-07-29T04:12:14;18.00;55.00
47590;DHT22;33316;52.298;9.056;2022-07-29T04:14:40;18.00;55.10
47590;DHT22;33316;52.298;9.056;2022-07-29T04:17:05;18.00;55.10
47590;DHT22;33316;52.298;9.056;2022-07-29T04:19:36;17.90;55.10
47590;DHT22;33316;52.298;9.056;2022-07-29T04:22:02;17.90;55.20
47590;DHT22;33316;52.298;9.056;2022-07-29T04:24:28;17.90;55.20
47590;DHT22;33316;52.298;9.056;2022-07-29T04:26:56;17.90;55.20
47590;DHT22;33316;52.298;9.056;2022-07-29T04:29:22;17.90;55.30
47590;DHT22;33316;52.298;9.056;2022-07-29T04:31:50;17.90;55.40
47590;DHT22;33316;52.298;9.056;2022-07-29T04:34:15;17.90;55.30
47590;DHT22;33316;52.298;9.056;2022-07-29T04:36:41;17.90;55.40
47590;DHT22;33316;52.298;9.056;2022-07-29T04:39:06;17.90;55.60
47590;DHT22;33316;52.298;9.056;2022-07-29T04:41:32;17.90;55.70
47590;DHT22;33316;52.298;9.056;2022-07-29T04:44:01;17.90;55.80
47590;DHT22;33316;52.298;9.056;2022-07-29T04:46:30;17.90;56.00
47590;DHT22;33316;52.298;9.056;2022-07-29T04:48:55;17.80;56.10
47590;DHT22;33316;52.298;9.056;2022-07-29T04:51:21;17.80;56.10
47590;DHT22;33316;52.298;9.056;2022-07-29T04:53:47;17.80;56.20
47590;DHT22;33316;52.298;9.056;2022-07-29T04:56:13;17.70;56.20
47590;DHT22;33316;52.298;9.056;2022-07-29T04:58:38;17.70;56.40
47590;DHT22;33316;52.298;9.056;2022-07-29T05:01:04;17.70;56.40
47590;DHT22;33316;52.298;9.056;2022-07-29T05:03:29;17.70;56.40
47590;DHT22;33316;52.298;9.056;2022-07-29T05:05:55;17.80;56.40
47590;DHT22;33316;52.298;9.056;2022-07-29T05:08:21;17.80;56.50
47590;DHT22;33316;52.298;9.056;2022-07-29T05:10:48;17.80;56.60
47590;DHT22;33316;52.298;9.056;2022-07-29T05:13:14;17.80;56.60
47590;DHT22;33316;52.298;9.056;2022-07-29T05:15:39;17.80;56.60
47590;DHT22;33316;52.298;9.056;2022-07-29T05:18:05;17.80;56.50
47590;DHT22;33316;52.298;9.056;2022-07-29T05:20:31;17.70;56.50
47590;DHT22;33316;52.298;9.056;2022-07-29T05:23:01;17.80;56.60
47590;DHT22;33316;52.298;9.056;2022-07-29T05:25:29;17.80;56.50
47590;DHT22;33316;52.298;9.056;2022-07-29T05:27:55;17.80;56.40
47590;DHT22;33316;52.298;9.056;2022-07-29T05:30:21;17.80;56.50
47590;DHT22;33316;52.298;9.056;2022-07-29T05:32:49;17.90;56.50
47590;DHT22;33316;52.298;9.056;2022-07-29T05:35:15;17.90;56.60
47590;DHT22;33316;52.298;9.056;2022-07-29T05:37:41;17.90;56.70
47590;DHT22;33316;52.298;9.056;2022-07-29T05:40:08;17.90;56.60
47590;DHT22;33316;52.298;9.056;2022-07-29T05:42:36;18.00;56.60
47590;DHT22;33316;52.298;9.056;2022-07-29T05:45:02;18.00;56.50
47590;DHT22;33316;52.298;9.056;2022-07-29T05:47:28;18.10;56.40
47590;DHT22;33316;52.298;9.056;2022-07-29T05:49:57;18.20;56.30
47590;DHT22;33316;52.298;9.056;2022-07-29T05:52:22;18.30;56.30
47590;DHT22;33316;52.298;9.056;2022-07-29T05:54:48;18.40;56.40
47590;DHT22;33316;52.298;9.056;2022-07-29T05:57:19;18.30;56.40
47590;DHT22;33316;52.298;9.056;2022-07-29T05:59:45;18.30;56.40
47590;DHT22;33316;52.298;9.056;2022-07-29T06:02:16;18.20;56.30
47590;DHT22;33316;52.298;9.056;2022-07-29T06:04:42;18.20;56.50
47590;DHT22;33316;52.298;9.056;2022-07-29T06:07:08;18.20;56.60
47590;DHT22;33316;52.298;9.056;2022-07-29T06:09:34;18.10;56.50
47590;DHT22;33316;52.298;9.056;2022-07-29T06:12:00;18.10;56.60
47590;DHT22;33316;52.298;9.056;2022-07-29T06:14:26;18.10;56.70
47590;DHT22;33316;52.298;9.056;2022-07-29T06:16:54;18.10;56.70
47590;DHT22;33316;52.298;9.056;2022-07-29T06:19:20;18.10;56.70
47590;DHT22;33316;52.298;9.056;2022-07-29T06:21:46;18.10;56.70
47590;DHT22;33316;52.298;9.056;2022-07-29T06:24:12;18.00;56.70
47590;DHT22;33316;52.298;9.056;2022-07-29T06:26:39;18.00;56.70
47590;DHT22;33316;52.298;9.056;2022-07-29T06:29:06;18.00;56.80
47590;DHT22;33316;52.298;9.056;2022-07-29T06:31:31;18.10;56.90
47590;DHT22;33316;52.298;9.056;2022-07-29T06:33:57;18.10;56.80
47590;DHT22;33316;52.298;9.056;2022-07-29T06:36:23;18.10;56.80
47590;DHT22;33316;52.298;9.056;2022-07-29T06:38:48;18.10;56.80
47590;DHT22;33316;52.298;9.056;2022-07-29T06:41:14;18.10;56.80
47590;DHT22;33316;52.298;9.056;2022-07-29T06:43:42;18.20;56.80
47590;DHT22;33316;52.298;9.056;2022-07-29T06:46:11;18.20;56.80
47590;DHT22;33316;52.298;9.056;2022-07-29T06:48:38;18.20;56.80
47590;DHT22;33316;52.298;9.056;2022-07-29T06:51:04;18.20;56.80
47590;DHT22;33316;52.298;9.056;2022-07-29T06:53:31;18.20;56.80
47590;DHT22;33316;52.298;9.056;2022-07-29T06:55:58;18.20;56.90
47590;DHT22;33316;52.298;9.056;2022-07-29T06:58:24;18.20;56.90
47590;DHT22;33316;52.298;9.056;2022-07-29T07:00:50;18.30;56.80
47590;DHT22;33316;52.298;9.056;2022-07-29T07:03:17;18.30;56.70
47590;DHT22;33316;52.298;9.056;2022-07-29T07:05:43;18.30;56.70
47590;DHT22;33316;52.298;9.056;2022-07-29T07:08:08;18.30;56.70
47590;DHT22;33316;52.298;9.056;2022-07-29T07:10:34;18.40;56.70
47590;DHT22;33316;52.298;9.056;2022-07-29T07:13:00;18.40;56.60
47590;DHT22;33316;52.298;9.056;2022-07-29T07:15:27;18.50;56.60
47590;DHT22;33316;52.298;9.056;2022-07-29T07:17:52;18.60;56.60
47590;DHT22;33316;52.298;9.056;2022-07-29T07:20:18;18.50;56.50
47590;DHT22;33316;52.298;9.056;2022-07-29T07:22:44;18.60;56.50
47590;DHT22;33316;52.298;9.056;2022-07-29T07:25:10;18.60;56.60
47590;DHT22;33316;52.298;9.056;2022-07-29T07:27:36;18.60;56.50
47590;DHT22;33316;52.298;9.056;2022-07-29T07:30:04;18.60;56.50
47590;DHT22;33316;52.298;9.056;2022-07-29T07:32:34;18.70;56.60
47590;DHT22;33316;52.298;9.056;2022-07-29T07:34:59;18.70;56.50
47590;DHT22;33316;52.298;9.056;2022-07-29T07:37:25;18.70;56.40
47590;DHT22;33316;52.298;9.056;2022-07-29T07:39:52;18.70;56.50
47590;DHT22;33316;52.298;9.056;2022-07-29T07:42:18;18.70;56.40
47590;DHT22;33316;52.298;9.056;2022-07-29T07:44:43;18.80;56.40
47590;DHT22;33316;52.298;9.056;2022-07-29T07:47:14;18.80;56.40
47590;DHT22;33316;52.298;9.056;2022-07-29T07:49:39;18.80;56.40
47590;DHT22;33316;52.298;9.056;2022-07-29T07:52:05;18.90;56.40
47590;DHT22;33316;52.298;9.056;2022-07-29T07:54:31;18.80;56.30
47590;DHT22;33316;52.298;9.056;2022-07-29T07:56:57;18.90;56.40
47590;DHT22;33316;52.298;9.056;2022-07-29T07:59:22;18.90;56.40
47590;DHT22;33316;52.298;9.056;2022-07-29T08:01:49;18.90;56.30
47590;DHT22;33316;52.298;9.056;2022-07-29T08:04:14;19.00;56.30
47590;DHT22;33316;52.298;9.056;2022-07-29T08:06:40;19.00;56.30
47590;DHT22;33316;52.298;9.056;2022-07-29T08:09:05;19.10;56.30
47590;DHT22;33316;52.298;9.056;2022-07-29T08:11:31;19.20;56.40
47590;DHT22;33316;52.298;9.056;2022-07-29T08:13:57;19.20;56.20
47590;DHT22;33316;52.298;9.056;2022-07-29T08:16:23;19.20;56.00
47590;DHT22;33316;52.298;9.056;2022-07-29T08:18:51;19.30;56.10
47590;DHT22;33316;52.298;9.056;2022-07-29T08:21:17;19.40;56.10
47590;DHT22;33316;52.298;9.056;2022-07-29T08:23:46;19.40;55.90
47590;DHT22;33316;52.298;9.056;2022-07-29T08:26:15;19.40;55.90
47590;DHT22;33316;52.298;9.056;2022-07-29T08:28:43;19.50;55.80
47590;DHT22;33316;52.298;9.056;2022-07-29T08:31:15;19.60;55.70
47590;DHT22;33316;52.298;9.056;2022-07-29T08:33:41;19.60;55.60
47590;DHT22;33316;52.298;9.056;2022-07-29T08:36:07;19.70;55.50
47590;DHT22;33316;52.298;9.056;2022-07-29T08:38:33;19.70;55.30
47590;DHT22;33316;52.298;9.056;2022-07-29T08:41:00;19.80;55.40
47590;DHT22;33316;52.298;9.056;2022-07-29T08:43:27;19.80;55.20
47590;DHT22;33316;52.298;9.056;2022-07-29T08:45:53;19.90;55.20
47590;DHT22;33316;52.298;9.056;2022-07-29T08:48:21;20.00;55.10
47590;DHT22;33316;52.298;9.056;2022-07-29T08:50:48;20.10;54.90
47590;DHT22;33316;52.298;9.056;2022-07-29T08:53:17;20.10;54.80
47590;DHT22;33316;52.298;9.056;2022-07-29T08:55:44;20.20;54.80
47590;DHT22;33316;52.298;9.056;2022-07-29T08:58:11;20.20;54.50
47590;DHT22;33316;52.298;9.056;2022-07-29T09:00:42;20.30;54.20
47590;DHT22;33316;52.298;9.056;2022-07-29T09:03:08;20.30;54.10
47590;DHT22;33316;52.298;9.056;2022-07-29T09:05:34;20.30;54.10
47590;DHT22;33316;52.298;9.056;2022-07-29T09:08:01;20.40;54.20
47590;DHT22;33316;52.298;9.056;2022-07-29T09:10:27;20.40;54.20
47590;DHT22;33316;52.298;9.056;2022-07-29T09:12:54;20.50;54.70
47590;DHT22;33316;52.298;9.056;2022-07-29T09:15:20;20.60;54.00
47590;DHT22;33316;52.298;9.056;2022-07-29T09:17:47;20.60;53.80
47590;DHT22;33316;52.298;9.056;2022-07-29T09:20:19;20.70;54.00
47590;DHT22;33316;52.298;9.056;2022-07-29T09:22:45;20.80;53.80
47590;DHT22;33316;52.298;9.056;2022-07-29T09:25:34;20.90;53.90
47590;DHT22;33316;52.298;9.056;2022-07-29T09:30:33;21.10;53.50
47590;DHT22;33316;52.298;9.056;2022-07-29T09:33:00;21.20;53.10
47590;DHT22;33316;52.298;9.056;2022-07-29T09:35:27;21.30;52.60
47590;DHT22;33316;52.298;9.056;2022-07-29T09:37:54;21.40;52.50
47590;DHT22;33316;52.298;9.056;2022-07-29T09:40:25;21.40;52.20
47590;DHT22;33316;52.298;9.056;2022-07-29T09:42:53;21.40;52.10
47590;DHT22;33316;52.298;9.056;2022-07-29T09:45:26;21.50;51.90
47590;DHT22;33316;52.298;9.056;2022-07-29T09:47:52;21.50;51.70
47590;DHT22;33316;52.298;9.056;2022-07-29T09:50:17;21.50;51.70
47590;DHT22;33316;52.298;9.056;2022-07-29T09:52:51;21.50;51.60
47590;DHT22;33316;52.298;9.056;2022-07-29T09:55:18;21.60;51.30
47590;DHT22;33316;52.298;9.056;2022-07-29T09:57:44;21.60;51.10
47590;DHT22;33316;52.298;9.056;2022-07-29T10:00:13;21.70;50.90
47590;DHT22;33316;52.298;9.056;2022-07-29T10:02:41;21.70;51.00
47590;DHT22;33316;52.298;9.056;2022-07-29T10:05:25;21.80;51.10
47590;DHT22;33316;52.298;9.056;2022-07-29T10:07:56;21.90;50.90
47590;DHT22;33316;52.298;9.056;2022-07-29T10:10:30;21.90;50.50
47590;DHT22;33316;52.298;9.056;2022-07-29T10:12:58;22.00;50.40
47590;DHT22;33316;52.298;9.056;2022-07-29T10:15:26;22.00;50.40
47590;DHT22;33316;52.298;9.056;2022-07-29T10:17:54;22.10;50.40
47590;DHT22;33316;52.298;9.056;2022-07-29T10:20:21;22.20;50.10
47590;DHT22;33316;52.298;9.056;2022-07-29T10:22:47;22.30;50.00
47590;DHT22;33316;52.298;9.056;2022-07-29T10:25:14;22.40;49.80
47590;DHT22;33316;52.298;9.056;2022-07-29T10:27:40;22.40;49.50
47590;DHT22;33316;52.298;9.056;2022-07-29T10:30:06;22.50;49.30
47590;DHT22;33316;52.298;9.056;2022-07-29T10:35:47;22.50;49.00
47590;DHT22;33316;52.298;9.056;2022-07-29T10:38:33;22.60;49.00
47590;DHT22;33316;52.298;9.056;2022-07-29T10:44:06;22.70;48.90
47590;DHT22;33316;52.298;9.056;2022-07-29T10:46:37;22.80;49.00
47590;DHT22;33316;52.298;9.056;2022-07-29T10:49:17;22.90;48.70
47590;DHT22;33316;52.298;9.056;2022-07-29T10:57:23;23.10;48.20
47590;DHT22;33316;52.298;9.056;2022-07-29T11:05:06;23.30;47.90
47590;DHT22;33316;52.298;9.056;2022-07-29T11:07:35;23.30;47.80
47590;DHT22;33316;52.298;9.056;2022-07-29T11:15:17;23.40;47.60
47590;DHT22;33316;52.298;9.056;2022-07-29T11:20:39;23.40;47.40
47590;DHT22;33316;52.298;9.056;2022-07-29T11:23:29;23.50;47.20
47590;DHT22;33316;52.298;9.056;2022-07-29T11:26:17;23.50;47.40
47590;DHT22;33316;52.298;9.056;2022-07-29T11:29:04;23.40;47.20
47590;DHT22;33316;52.298;9.056;2022-07-29T11:31:36;23.50;47.40
47590;DHT22;33316;52.298;9.056;2022-07-29T11:39:38;23.40;47.60
47590;DHT22;33316;52.298;9.056;2022-07-29T11:45:11;23.40;47.60
47590;DHT22;33316;52.298;9.056;2022-07-29T11:47:59;23.40;47.50
47590;DHT22;33316;52.298;9.056;2022-07-29T11:50:31;23.40;47.50
47590;DHT22;33316;52.298;9.056;2022-07-29T11:52:57;23.40;47.40
47590;DHT22;33316;52.298;9.056;2022-07-29T11:55:23;23.40;47.60
47590;DHT22;33316;52.298;9.056;2022-07-29T12:00:34;23.40;47.80
47590;DHT22;33316;52.298;9.056;2022-07-29T12:03:06;23.40;47.80
47590;DHT22;33316;52.298;9.056;2022-07-29T12:05:41;23.40;47.90
47590;DHT22;33316;52.298;9.056;2022-07-29T12:08:18;23.40;47.90
47590;DHT22;33316;52.298;9.056;2022-07-29T12:10:46;23.40;47.80
47590;DHT22;33316;52.298;9.056;2022-07-29T12:13:12;23.40;47.80
47590;DHT22;33316;52.298;9.056;2022-07-29T12:15:39;23.40;47.80
47590;DHT22;33316;52.298;9.056;2022-07-29T12:18:15;23.40;47.90
47590;DHT22;33316;52.298;9.056;2022-07-29T12:20:42;23.40;48.00
47590;DHT22;33316;52.298;9.056;2022-07-29T12:23:08;23.40;47.90
47590;DHT22;33316;52.298;9.056;2022-07-29T12:25:37;23.50;48.10
47590;DHT22;33316;52.298;9.056;2022-07-29T12:28:12;23.50;48.20
47590;DHT22;33316;52.298;9.056;2022-07-29T12:30:43;23.50;48.10
47590;DHT22;33316;52.298;9.056;2022-07-29T12:33:36;23.50;47.90
47590;DHT22;33316;52.298;9.056;2022-07-29T12:36:02;23.50;47.90
47590;DHT22;33316;52.298;9.056;2022-07-29T12:38:28;23.50;48.10
47590;DHT22;33316;52.298;9.056;2022-07-29T12:40:54;23.50;48.20
47590;DHT22;33316;52.298;9.056;2022-07-29T12:43:21;23.50;48.30
47590;DHT22;33316;52.298;9.056;2022-07-29T12:45:52;23.50;48.30
47590;DHT22;33316;52.298;9.056;2022-07-29T12:48:32;23.50;48.40
47590;DHT22;33316;52.298;9.056;2022-07-29T12:51:00;23.50;48.50
47590;DHT22;33316;52.298;9.056;2022-07-29T12:53:27;23.50;48.50
47590;DHT22;33316;52.298;9.056;2022-07-29T12:55:54;23.60;48.50
47590;DHT22;33316;52.298;9.056;2022-07-29T13:01:14;23.60;48.60
47590;DHT22;33316;52.298;9.056;2022-07-29T13:03:54;23.70;48.60
47590;DHT22;33316;52.298;9.056;2022-07-29T13:09:07;23.90;48.30
47590;DHT22;33316;52.298;9.056;2022-07-29T13:11:35;24.00;48.30
47590;DHT22;33316;52.298;9.056;2022-07-29T13:14:02;24.10;48.10
47590;DHT22;33316;52.298;9.056;2022-07-29T13:16:27;24.10;47.80
47590;DHT22;33316;52.298;9.056;2022-07-29T13:19:10;24.20;47.60
47590;DHT22;33316;52.298;9.056;2022-07-29T13:21:37;24.30;47.80
47590;DHT22;33316;52.298;9.056;2022-07-29T13:24:04;24.40;47.50
47590;DHT22;33316;52.298;9.056;2022-07-29T13:26:31;24.50;47.50
47590;DHT22;33316;52.298;9.056;2022-07-29T13:28:57;24.50;47.20
47590;DHT22;33316;52.298;9.056;2022-07-29T13:31:22;24.60;47.20
47590;DHT22;33316;52.298;9.056;2022-07-29T13:33:48;24.60;47.20
47590;DHT22;33316;52.298;9.056;2022-07-29T13:36:14;24.70;47.00
47590;DHT22;33316;52.298;9.056;2022-07-29T13:38:39;24.70;46.60
47590;DHT22;33316;52.298;9.056;2022-07-29T13:41:05;24.70;46.40
47590;DHT22;33316;52.298;9.056;2022-07-29T13:43:31;24.70;46.60
47590;DHT22;33316;52.298;9.056;2022-07-29T13:45:56;24.70;46.80
47590;DHT22;33316;52.298;9.056;2022-07-29T13:48:22;24.80;47.00
47590;DHT22;33316;52.298;9.056;2022-07-29T13:50:47;24.90;46.80
47590;DHT22;33316;52.298;9.056;2022-07-29T13:53:13;24.90;46.60
47590;DHT22;33316;52.298;9.056;2022-07-29T13:55:39;24.90;46.30
47590;DHT22;33316;52.298;9.056;2022-07-29T13:58:05;25.00;46.50
47590;DHT22;33316;52.298;9.056;2022-07-29T14:00:30;25.00;46.30
47590;DHT22;33316;52.298;9.056;2022-07-29T14:02:56;25.00;46.10
47590;DHT22;33316;52.298;9.056;2022-07-29T14:05:22;25.00;46.00
47590;DHT22;33316;52.298;9.056;2022-07-29T14:07:47;25.00;45.80
47590;DHT22;33316;52.298;9.056;2022-07-29T14:10:13;25.00;45.50
47590;DHT22;33316;52.298;9.056;2022-07-29T14:12:39;25.00;45.50
47590;DHT22;33316;52.298;9.056;2022-07-29T14:15:07;25.00;45.50
47590;DHT22;33316;52.298;9.056;2022-07-29T14:17:33;24.90;45.40
47590;DHT22;33316;52.298;9.056;2022-07-29T14:19:58;24.90;45.60
47590;DHT22;33316;52.298;9.056;2022-07-29T14:22:24;25.00;45.80
47590;DHT22;33316;52.298;9.056;2022-07-29T14:24:50;25.00;45.80
47590;DHT22;33316;52.298;9.056;2022-07-29T14:27:16;24.90;45.80
47590;DHT22;33316;52.298;9.056;2022-07-29T14:29:41;25.00;45.70
47590;DHT22;33316;52.298;9.056;2022-07-29T14:32:08;25.00;45.40
47590;DHT22;33316;52.298;9.056;2022-07-29T14:34:36;24.90;45.40
47590;DHT22;33316;52.298;9.056;2022-07-29T14:37:02;24.90;45.60
47590;DHT22;33316;52.298;9.056;2022-07-29T14:39:30;25.00;45.60
47590;DHT22;33316;52.298;9.056;2022-07-29T14:41:55;24.90;45.70
47590;DHT22;33316;52.298;9.056;2022-07-29T14:44:21;24.90;45.60
47590;DHT22;33316;52.298;9.056;2022-07-29T14:46:46;24.90;45.50
47590;DHT22;33316;52.298;9.056;2022-07-29T14:49:12;25.00;45.50
47590;DHT22;33316;52.298;9.056;2022-07-29T14:51:38;24.90;45.40
47590;DHT22;33316;52.298;9.056;2022-07-29T14:54:03;24.90;45.50
47590;DHT22;33316;52.298;9.056;2022-07-29T14:56:29;25.00;45.50
47590;DHT22;33316;52.298;9.056;2022-07-29T14:58:56;24.90;45.40
47590;DHT22;33316;52.298;9.056;2022-07-29T15:01:21;25.00;45.60
47590;DHT22;33316;52.298;9.056;2022-07-29T15:03:47;25.00;45.70
47590;DHT22;33316;52.298;9.056;2022-07-29T15:06:13;25.00;45.60
47590;DHT22;33316;52.298;9.056;2022-07-29T15:08:38;25.00;45.70
47590;DHT22;33316;52.298;9.056;2022-07-29T15:11:04;25.10;45.60
47590;DHT22;33316;52.298;9.056;2022-07-29T15:13:29;25.10;45.50
47590;DHT22;33316;52.298;9.056;2022-07-29T15:15:55;25.10;45.40
47590;DHT22;33316;52.298;9.056;2022-07-29T15:18:20;25.10;45.50
47590;DHT22;33316;52.298;9.056;2022-07-29T15:20:46;25.10;45.40
47590;DHT22;33316;52.298;9.056;2022-07-29T15:23:12;25.10;46.00
47590;DHT22;33316;52.298;9.056;2022-07-29T15:25:39;25.10;45.40
47590;DHT22;33316;52.298;9.056;2022-07-29T15:28:05;25.10;45.50
47590;DHT22;33316;52.298;9.056;2022-07-29T15:30:34;25.10;45.50
47590;DHT22;33316;52.298;9.056;2022-07-29T15:33:02;25.10;45.60
47590;DHT22;33316;52.298;9.056;2022-07-29T15:35:28;25.10;45.60
47590;DHT22;33316;52.298;9.056;2022-07-29T15:37:54;25.10;45.50
47590;DHT22;33316;52.298;9.056;2022-07-29T15:40:19;25.10;45.70
47590;DHT22;33316;52.298;9.056;2022-07-29T15:42:45;25.10;45.80
47590;DHT22;33316;52.298;9.056;2022-07-29T15:45:10;25.10;45.80
47590;DHT22;33316;52.298;9.056;2022-07-29T15:47:36;25.10;45.70
47590;DHT22;33316;52.298;9.056;2022-07-29T15:50:02;25.10;45.70
47590;DHT22;33316;52.298;9.056;2022-07-29T15:52:27;25.10;45.80
47590;DHT22;33316;52.298;9.056;2022-07-29T15:54:54;25.00;45.70
47590;DHT22;33316;52.298;9.056;2022-07-29T15:57:20;25.00;45.90
47590;DHT22;33316;52.298;9.056;2022-07-29T15:59:46;25.10;46.20
47590;DHT22;33316;52.298;9.056;2022-07-29T16:02:11;25.10;46.40
47590;DHT22;33316;52.298;9.056;2022-07-29T16:04:37;25.10;46.60
47590;DHT22;33316;52.298;9.056;2022-07-29T16:07:03;25.00;46.70
47590;DHT22;33316;52.298;9.056;2022-07-29T16:09:28;25.00;46.90
47590;DHT22;33316;52.298;9.056;2022-07-29T16:11:54;25.00;47.00
47590;DHT22;33316;52.298;9.056;2022-07-29T16:14:20;25.00;47.10
47590;DHT22;33316;52.298;9.056;2022-07-29T16:16:46;24.90;47.10
47590;DHT22;33316;52.298;9.056;2022-07-29T16:19:12;25.00;47.10
47590;DHT22;33316;52.298;9.056;2022-07-29T16:21:37;25.00;47.10
47590;DHT22;33316;52.298;9.056;2022-07-29T16:24:07;24.90;47.10
47590;DHT22;33316;52.298;9.056;2022-07-29T16:26:33;24.90;47.20
47590;DHT22;33316;52.298;9.056;2022-07-29T16:28:59;24.90;47.20
47590;DHT22;33316;52.298;9.056;2022-07-29T16:31:28;24.90;47.20